Estesun — 3ETK8 — position and weather

sailwx.info

Track history (hours):
 
Tides and Currents Weather Stations Pressure Air Temp Water Temp Dewpoint Dewpoint Depression Visibility Wind Speed Wind Dir Waves Ship Positions

Estesun

Last reported at 2018-Feb-20 03:15 UTC. Time now 2018-Feb-25 22:16 UTC.
Position N 39°51' W 009°38'.

Length 136 m; draft 7.6 m.

Type: Cargo ship. MMSI: 370596000.

Date/timePositionNaut miles runAvg speedWind from/ knotsBaromVisibWave heightAir tempDewpointWater temp
2018-Feb-20 03:15N 39°51' W 009°38'2 8.0
2018-Feb-20 03:00N 39°49' W 009°39'4 8.0
2018-Feb-20 02:30N 39°45' W 009°40'20 7.8
2018-Feb-19 23:57N 39°25' W 009°44'3 7.5
2018-Feb-19 23:30N 39°22' W 009°45'4 7.2
2018-Feb-19 23:00N 39°18' W 009°45'4 7.1
2018-Feb-19 22:30N 39°15' W 009°46'4 7.3
2018-Feb-19 22:00N 39°11' W 009°47'4 7.4
2018-Feb-19 21:30N 39°07' W 009°47'4 7.4
2018-Feb-19 21:00N 39°04' W 009°48'4 7.2
2018-Feb-19 20:30N 39°00' W 009°48'4 7.0
2018-Feb-19 20:00N 38°57' W 009°49'3 6.9
2018-Feb-19 19:30N 38°53' W 009°50'4 7.2
2018-Feb-19 19:00N 38°50' W 009°50'4 7.6
2018-Feb-19 18:30N 38°46' W 009°50'4 8.1
2018-Feb-19 18:00N 38°42' W 009°50'4 8.1
2018-Feb-19 17:30N 38°38' W 009°49'4 8.0
2018-Feb-19 17:00N 38°34' W 009°48'4 8.3
2018-Feb-19 16:31N 38°30' W 009°47'4 8.1
2018-Feb-19 16:01N 38°26' W 009°46'4 7.9
2018-Feb-19 15:31N 38°22' W 009°45'4 7.9
2018-Feb-19 15:01N 38°18' W 009°44'4 7.9
2018-Feb-19 14:31N 38°14' W 009°43'4 8.1
2018-Feb-19 14:01N 38°10' W 009°41'4 8.3
2018-Feb-19 13:30N 38°06' W 009°40'4 8.7
2018-Feb-19 13:01N 38°02' W 009°39'5 9.2
2018-Feb-19 12:31N 37°58' W 009°37'5 9.3
2018-Feb-19 12:00N 37°53' W 009°36'4 9.0
2018-Feb-19 11:30N 37°49' W 009°34'4 8.8
2018-Feb-19 11:00N 37°45' W 009°33'4 8.1
2018-Feb-19 10:31N 37°41' W 009°33'4 8.1
2018-Feb-19 10:00N 37°37' W 009°32'4 8.3
2018-Feb-19 09:31N 37°33' W 009°31'4 8.4
2018-Feb-19 08:59N 37°28' W 009°29'10 8.5
2018-Feb-19 07:51N 37°19' W 009°26'51 7.3
2018-Feb-19 00:56N 36°40' W 008°45'9 8.6
2018-Feb-18 23:49N 36°37' W 008°34'  
Track history (hours):
 
Tides and Currents Weather Stations Pressure Air Temp Water Temp Dewpoint Dewpoint Depression Visibility Wind Speed Wind Dir Waves Ship Positions

Estesun

Last reported at 2018-Feb-20 03:15 UTC. Time now 2018-Feb-25 22:16 UTC.
Position N 39°51' W 009°38'.

Length 136 m; draft 7.6 m.

Type: Cargo ship. MMSI: 370596000.

Date/timePositionNaut miles runAvg speedWind from/ knotsBaromVisibWave heightAir tempDewpointWater temp
2018-Feb-20 03:15N 39°51' W 009°38'2 8.0
2018-Feb-20 03:00N 39°49' W 009°39'4 8.0
2018-Feb-20 02:30N 39°45' W 009°40'20 7.8
2018-Feb-19 23:57N 39°25' W 009°44'3 7.5
2018-Feb-19 23:30N 39°22' W 009°45'4 7.2
2018-Feb-19 23:00N 39°18' W 009°45'4 7.1
2018-Feb-19 22:30N 39°15' W 009°46'4 7.3
2018-Feb-19 22:00N 39°11' W 009°47'4 7.4
2018-Feb-19 21:30N 39°07' W 009°47'4 7.4
2018-Feb-19 21:00N 39°04' W 009°48'4 7.2
2018-Feb-19 20:30N 39°00' W 009°48'4 7.0
2018-Feb-19 20:00N 38°57' W 009°49'3 6.9
2018-Feb-19 19:30N 38°53' W 009°50'4 7.2
2018-Feb-19 19:00N 38°50' W 009°50'4 7.6
2018-Feb-19 18:30N 38°46' W 009°50'4 8.1
2018-Feb-19 18:00N 38°42' W 009°50'4 8.1
2018-Feb-19 17:30N 38°38' W 009°49'4 8.0
2018-Feb-19 17:00N 38°34' W 009°48'4 8.3
2018-Feb-19 16:31N 38°30' W 009°47'4 8.1
2018-Feb-19 16:01N 38°26' W 009°46'4 7.9
2018-Feb-19 15:31N 38°22' W 009°45'4 7.9
2018-Feb-19 15:01N 38°18' W 009°44'4 7.9
2018-Feb-19 14:31N 38°14' W 009°43'4 8.1
2018-Feb-19 14:01N 38°10' W 009°41'4 8.3
2018-Feb-19 13:30N 38°06' W 009°40'4 8.7
2018-Feb-19 13:01N 38°02' W 009°39'5 9.2
2018-Feb-19 12:31N 37°58' W 009°37'5 9.3
2018-Feb-19 12:00N 37°53' W 009°36'4 9.0
2018-Feb-19 11:30N 37°49' W 009°34'4 8.8
2018-Feb-19 11:00N 37°45' W 009°33'4 8.1
2018-Feb-19 10:31N 37°41' W 009°33'4 8.1
2018-Feb-19 10:00N 37°37' W 009°32'4 8.3
2018-Feb-19 09:31N 37°33' W 009°31'4 8.4
2018-Feb-19 08:59N 37°28' W 009°29'10 8.5
2018-Feb-19 07:51N 37°19' W 009°26'51 7.3
2018-Feb-19 00:56N 36°40' W 008°45'9 8.6
2018-Feb-18 23:49N 36°37' W 008°34'  

Dump ship's entire track history